sensor_id;sensor_type;location;lat;lon;timestamp;temperature;humidity
54946;DHT22;40846;44.788;20.486;2022-12-18T00:11:33;102.50;2227.20
54946;DHT22;40846;44.788;20.486;2022-12-18T00:53:04;77.50;2227.20
54946;DHT22;40846;44.788;20.486;2022-12-18T00:55:31;77.40;2227.20
54946;DHT22;40846;44.788;20.486;2022-12-18T00:57:57;77.20;2227.20
54946;DHT22;40846;44.788;20.486;2022-12-18T01:00:23;77.00;2227.20
54946;DHT22;40846;44.788;20.486;2022-12-18T01:02:49;76.90;2227.20
54946;DHT22;40846;44.788;20.486;2022-12-18T01:05:15;77.10;2227.20
54946;DHT22;40846;44.788;20.486;2022-12-18T01:07:41;77.00;2227.20
54946;DHT22;40846;44.788;20.486;2022-12-18T01:10:08;77.20;2227.20
54946;DHT22;40846;44.788;20.486;2022-12-18T01:12:35;77.10;2227.20
54946;DHT22;40846;44.788;20.486;2022-12-18T01:15:01;77.10;2227.20
54946;DHT22;40846;44.788;20.486;2022-12-18T01:17:26;77.30;2227.20
54946;DHT22;40846;44.788;20.486;2022-12-18T01:19:52;77.30;2227.20
54946;DHT22;40846;44.788;20.486;2022-12-18T01:22:18;77.20;2227.20
54946;DHT22;40846;44.788;20.486;2022-12-18T01:24:44;77.10;2227.20
54946;DHT22;40846;44.788;20.486;2022-12-18T02:29:55;77.60;2227.20
54946;DHT22;40846;44.788;20.486;2022-12-18T02:32:31;77.60;2227.20
54946;DHT22;40846;44.788;20.486;2022-12-18T02:35:01;77.50;2227.20
54946;DHT22;40846;44.788;20.486;2022-12-18T02:37:28;77.60;2227.20
54946;DHT22;40846;44.788;20.486;2022-12-18T02:39:57;77.60;2227.20
54946;DHT22;40846;44.788;20.486;2022-12-18T02:42:24;102.40;2227.20
54946;DHT22;40846;44.788;20.486;2022-12-18T02:44:51;77.30;2227.20
54946;DHT22;40846;44.788;20.486;2022-12-18T02:47:19;77.30;2227.20
54946;DHT22;40846;44.788;20.486;2022-12-18T02:52:45;77.30;2227.20
54946;DHT22;40846;44.788;20.486;2022-12-18T02:58:10;77.50;2227.20
54946;DHT22;40846;44.788;20.486;2022-12-18T03:00:51;77.30;2227.20
54946;DHT22;40846;44.788;20.486;2022-12-18T03:03:36;77.20;2227.20
54946;DHT22;40846;44.788;20.486;2022-12-18T03:06:10;77.00;2227.20
54946;DHT22;40846;44.788;20.486;2022-12-18T03:08:41;76.90;2227.20
54946;DHT22;40846;44.788;20.486;2022-12-18T03:11:12;76.90;2227.20
54946;DHT22;40846;44.788;20.486;2022-12-18T03:13:52;77.00;2227.20
54946;DHT22;40846;44.788;20.486;2022-12-18T03:16:24;77.00;2227.20
54946;DHT22;40846;44.788;20.486;2022-12-18T03:18:53;76.90;2227.20
54946;DHT22;40846;44.788;20.486;2022-12-18T03:21:27;76.90;2227.20
54946;DHT22;40846;44.788;20.486;2022-12-18T03:23:54;76.80;2227.20
54946;DHT22;40846;44.788;20.486;2022-12-18T03:26:25;76.80;2227.20
54946;DHT22;40846;44.788;20.486;2022-12-18T03:29:02;76.90;2227.20
54946;DHT22;40846;44.788;20.486;2022-12-18T03:34:03;52.10;2227.20
54946;DHT22;40846;44.788;20.486;2022-12-18T03:36:33;52.00;2227.20
54946;DHT22;40846;44.788;20.486;2022-12-18T03:38:59;52.00;2227.20
54946;DHT22;40846;44.788;20.486;2022-12-18T03:44:22;52.10;2227.20
54946;DHT22;40846;44.788;20.486;2022-12-18T03:52:38;76.90;2227.20
54946;DHT22;40846;44.788;20.486;2022-12-18T03:55:07;76.80;2227.20
54946;DHT22;40846;44.788;20.486;2022-12-18T03:57:34;77.00;2227.20
54946;DHT22;40846;44.788;20.486;2022-12-18T04:02:31;76.80;2227.20
54946;DHT22;40846;44.788;20.486;2022-12-18T04:05:01;52.10;2227.20
54946;DHT22;40846;44.788;20.486;2022-12-18T04:07:28;76.80;2227.20
54946;DHT22;40846;44.788;20.486;2022-12-18T04:09:56;52.10;2227.20
54946;DHT22;40846;44.788;20.486;2022-12-18T04:24:36;52.00;2227.20
54946;DHT22;40846;44.788;20.486;2022-12-18T04:27:02;76.80;2227.20
54946;DHT22;40846;44.788;20.486;2022-12-18T04:29:28;52.00;2227.20
54946;DHT22;40846;44.788;20.486;2022-12-18T04:31:54;51.90;2227.20
54946;DHT22;40846;44.788;20.486;2022-12-18T04:34:20;76.90;2227.20
54946;DHT22;40846;44.788;20.486;2022-12-18T04:36:46;52.10;2227.20
54946;DHT22;40846;44.788;20.486;2022-12-18T04:39:12;52.00;2227.20
54946;DHT22;40846;44.788;20.486;2022-12-18T04:41:38;52.10;2227.20
54946;DHT22;40846;44.788;20.486;2022-12-18T04:44:04;52.00;2227.20
54946;DHT22;40846;44.788;20.486;2022-12-18T04:46:30;51.50;2227.20
54946;DHT22;40846;44.788;20.486;2022-12-18T04:51:22;51.70;2227.20
54946;DHT22;40846;44.788;20.486;2022-12-18T04:56:15;51.80;2227.20
54946;DHT22;40846;44.788;20.486;2022-12-18T04:58:42;51.40;2227.20
54946;DHT22;40846;44.788;20.486;2022-12-18T05:01:12;51.50;2227.20
54946;DHT22;40846;44.788;20.486;2022-12-18T05:03:38;51.70;2227.20
54946;DHT22;40846;44.788;20.486;2022-12-18T05:06:05;51.70;2227.20
54946;DHT22;40846;44.788;20.486;2022-12-18T05:08:31;51.40;2227.20
54946;DHT22;40846;44.788;20.486;2022-12-18T05:11:09;51.40;2227.20
54946;DHT22;40846;44.788;20.486;2022-12-18T05:13:35;51.40;2227.20
54946;DHT22;40846;44.788;20.486;2022-12-18T05:16:01;51.30;2227.20
54946;DHT22;40846;44.788;20.486;2022-12-18T05:18:28;51.30;2227.20
54946;DHT22;40846;44.788;20.486;2022-12-18T05:20:54;26.40;2201.60
54946;DHT22;40846;44.788;20.486;2022-12-18T05:23:20;26.50;2201.60
54946;DHT22;40846;44.788;20.486;2022-12-18T05:25:58;26.50;2201.60
54946;DHT22;40846;44.788;20.486;2022-12-18T05:28:25;26.40;2201.60
54946;DHT22;40846;44.788;20.486;2022-12-18T05:30:53;26.40;2201.60
54946;DHT22;40846;44.788;20.486;2022-12-18T05:33:20;51.20;2227.20
54946;DHT22;40846;44.788;20.486;2022-12-18T05:35:51;51.20;2227.20
54946;DHT22;40846;44.788;20.486;2022-12-18T05:38:17;51.30;2227.20
54946;DHT22;40846;44.788;20.486;2022-12-18T05:40:43;51.30;2227.20
54946;DHT22;40846;44.788;20.486;2022-12-18T05:43:10;51.30;2227.20
54946;DHT22;40846;44.788;20.486;2022-12-18T05:45:39;26.50;2201.60
54946;DHT22;40846;44.788;20.486;2022-12-18T05:48:05;51.30;2227.20
54946;DHT22;40846;44.788;20.486;2022-12-18T05:50:34;51.40;2227.20
54946;DHT22;40846;44.788;20.486;2022-12-18T05:53:00;51.20;2227.20
54946;DHT22;40846;44.788;20.486;2022-12-18T05:55:26;26.50;2201.60
54946;DHT22;40846;44.788;20.486;2022-12-18T05:57:52;26.50;2201.60
54946;DHT22;40846;44.788;20.486;2022-12-18T06:00:18;26.50;2201.60
54946;DHT22;40846;44.788;20.486;2022-12-18T06:02:47;51.30;2227.20
54946;DHT22;40846;44.788;20.486;2022-12-18T06:05:12;26.40;2201.60
54946;DHT22;40846;44.788;20.486;2022-12-18T06:07:38;26.40;2201.60
54946;DHT22;40846;44.788;20.486;2022-12-18T06:10:04;51.20;2227.20
54946;DHT22;40846;44.788;20.486;2022-12-18T06:12:30;26.30;2201.60
54946;DHT22;40846;44.788;20.486;2022-12-18T06:14:56;26.20;2201.60
54946;DHT22;40846;44.788;20.486;2022-12-18T06:17:22;26.20;2201.60
54946;DHT22;40846;44.788;20.486;2022-12-18T06:19:47;26.10;2201.60
54946;DHT22;40846;44.788;20.486;2022-12-18T06:22:13;26.10;2201.60
54946;DHT22;40846;44.788;20.486;2022-12-18T06:24:39;26.00;2201.60
54946;DHT22;40846;44.788;20.486;2022-12-18T06:27:04;26.10;2201.60
54946;DHT22;40846;44.788;20.486;2022-12-18T06:29:30;26.00;2201.60
54946;DHT22;40846;44.788;20.486;2022-12-18T06:31:56;25.90;2201.60
54946;DHT22;40846;44.788;20.486;2022-12-18T06:34:21;26.00;2201.60
54946;DHT22;40846;44.788;20.486;2022-12-18T06:36:47;25.90;2201.60
54946;DHT22;40846;44.788;20.486;2022-12-18T06:39:12;26.00;2201.60
54946;DHT22;40846;44.788;20.486;2022-12-18T06:41:38;26.10;2201.60
54946;DHT22;40846;44.788;20.486;2022-12-18T06:44:04;26.10;2201.60
54946;DHT22;40846;44.788;20.486;2022-12-18T06:46:30;26.30;2201.60
54946;DHT22;40846;44.788;20.486;2022-12-18T06:48:55;26.40;2201.60
54946;DHT22;40846;44.788;20.486;2022-12-18T06:51:22;26.40;2201.60
54946;DHT22;40846;44.788;20.486;2022-12-18T06:53:49;26.30;2201.60
54946;DHT22;40846;44.788;20.486;2022-12-18T06:56:15;26.40;2201.60
54946;DHT22;40846;44.788;20.486;2022-12-18T06:58:41;26.40;2201.60
54946;DHT22;40846;44.788;20.486;2022-12-18T07:01:10;26.20;2201.60
54946;DHT22;40846;44.788;20.486;2022-12-18T07:03:38;26.20;2201.60
54946;DHT22;40846;44.788;20.486;2022-12-18T07:06:04;26.20;2201.60
54946;DHT22;40846;44.788;20.486;2022-12-18T07:08:31;26.20;2201.60
54946;DHT22;40846;44.788;20.486;2022-12-18T07:10:57;26.30;2201.60
54946;DHT22;40846;44.788;20.486;2022-12-18T07:13:22;26.40;2201.60
54946;DHT22;40846;44.788;20.486;2022-12-18T07:15:48;26.50;2201.60
54946;DHT22;40846;44.788;20.486;2022-12-18T07:18:14;51.30;2227.20
54946;DHT22;40846;44.788;20.486;2022-12-18T07:20:40;26.50;2201.60
54946;DHT22;40846;44.788;20.486;2022-12-18T07:23:05;26.50;2201.60
54946;DHT22;40846;44.788;20.486;2022-12-18T07:25:35;26.50;2201.60
54946;DHT22;40846;44.788;20.486;2022-12-18T07:28:01;26.50;2201.60
54946;DHT22;40846;44.788;20.486;2022-12-18T07:30:27;51.20;2227.20
54946;DHT22;40846;44.788;20.486;2022-12-18T07:32:53;51.40;2227.20
54946;DHT22;40846;44.788;20.486;2022-12-18T07:35:18;51.40;2227.20
54946;DHT22;40846;44.788;20.486;2022-12-18T07:37:44;51.30;2227.20
54946;DHT22;40846;44.788;20.486;2022-12-18T07:40:10;51.30;2227.20
54946;DHT22;40846;44.788;20.486;2022-12-18T07:42:36;51.20;2227.20
54946;DHT22;40846;44.788;20.486;2022-12-18T07:45:03;26.50;2201.60
54946;DHT22;40846;44.788;20.486;2022-12-18T07:47:29;26.50;2201.60
54946;DHT22;40846;44.788;20.486;2022-12-18T07:49:54;26.40;2201.60
54946;DHT22;40846;44.788;20.486;2022-12-18T07:52:20;26.40;2201.60
54946;DHT22;40846;44.788;20.486;2022-12-18T07:54:46;51.20;2227.20
54946;DHT22;40846;44.788;20.486;2022-12-18T07:57:14;26.40;2201.60
54946;DHT22;40846;44.788;20.486;2022-12-18T07:59:40;51.20;2227.20
54946;DHT22;40846;44.788;20.486;2022-12-18T08:02:05;51.20;2227.20
54946;DHT22;40846;44.788;20.486;2022-12-18T08:04:31;26.50;2201.60
54946;DHT22;40846;44.788;20.486;2022-12-18T08:07:00;51.20;2227.20
54946;DHT22;40846;44.788;20.486;2022-12-18T08:09:25;51.30;2227.20
54946;DHT22;40846;44.788;20.486;2022-12-18T08:11:51;52.00;2227.20
54946;DHT22;40846;44.788;20.486;2022-12-18T08:24:01;52.10;2227.20
54946;DHT22;40846;44.788;20.486;2022-12-18T08:31:22;52.00;2227.20
54946;DHT22;40846;44.788;20.486;2022-12-18T08:33:49;51.70;2227.20
54946;DHT22;40846;44.788;20.486;2022-12-18T08:56:19;76.90;2227.20
54946;DHT22;40846;44.788;20.486;2022-12-18T08:58:44;76.90;2227.20
54946;DHT22;40846;44.788;20.486;2022-12-18T09:01:11;77.70;2227.20
54946;DHT22;40846;44.788;20.486;2022-12-18T09:03:38;77.60;2227.20
54946;DHT22;40846;44.788;20.486;2022-12-18T09:06:04;102.80;2227.20
54946;DHT22;40846;44.788;20.486;2022-12-18T09:33:00;102.80;2227.20
54946;DHT22;40846;44.788;20.486;2022-12-18T09:37:53;102.70;2227.20
54946;DHT22;40846;44.788;20.486;2022-12-18T09:40:22;77.60;2227.20
54946;DHT22;40846;44.788;20.486;2022-12-18T09:42:55;77.60;2227.20
54946;DHT22;40846;44.788;20.486;2022-12-18T09:45:23;77.50;2227.20
54946;DHT22;40846;44.788;20.486;2022-12-18T09:47:51;77.40;2227.20
54946;DHT22;40846;44.788;20.486;2022-12-18T09:50:31;102.50;2227.20
54946;DHT22;40846;44.788;20.486;2022-12-18T09:53:03;102.80;2227.20
54946;DHT22;40846;44.788;20.486;2022-12-18T09:55:37;154.10;2252.80
54946;DHT22;40846;44.788;20.486;2022-12-18T10:25:01;102.50;2227.20
54946;DHT22;40846;44.788;20.486;2022-12-18T10:27:28;77.60;2227.20
54946;DHT22;40846;44.788;20.486;2022-12-18T10:29:55;77.00;2227.20
54946;DHT22;40846;44.788;20.486;2022-12-18T10:32:26;77.20;2227.20
54946;DHT22;40846;44.788;20.486;2022-12-18T10:34:56;77.10;2227.20
54946;DHT22;40846;44.788;20.486;2022-12-18T10:37:25;76.90;2227.20
54946;DHT22;40846;44.788;20.486;2022-12-18T10:40:11;52.00;2227.20
54946;DHT22;40846;44.788;20.486;2022-12-18T10:42:37;52.00;2227.20
54946;DHT22;40846;44.788;20.486;2022-12-18T10:47:34;52.00;2227.20
54946;DHT22;40846;44.788;20.486;2022-12-18T10:50:01;52.00;2227.20
54946;DHT22;40846;44.788;20.486;2022-12-18T10:52:27;51.90;2227.20
54946;DHT22;40846;44.788;20.486;2022-12-18T10:54:55;51.80;2227.20
54946;DHT22;40846;44.788;20.486;2022-12-18T10:57:39;52.00;2227.20
54946;DHT22;40846;44.788;20.486;2022-12-18T11:00:29;51.80;2227.20
54946;DHT22;40846;44.788;20.486;2022-12-18T11:02:56;51.60;2227.20
54946;DHT22;40846;44.788;20.486;2022-12-18T11:05:34;51.70;2227.20
54946;DHT22;40846;44.788;20.486;2022-12-18T11:08:02;51.80;2227.20
54946;DHT22;40846;44.788;20.486;2022-12-18T11:10:29;52.00;2227.20
54946;DHT22;40846;44.788;20.486;2022-12-18T11:12:56;52.00;2227.20
54946;DHT22;40846;44.788;20.486;2022-12-18T11:15:33;52.00;2227.20
54946;DHT22;40846;44.788;20.486;2022-12-18T11:17:59;52.00;2227.20
54946;DHT22;40846;44.788;20.486;2022-12-18T11:20:34;51.80;2227.20
54946;DHT22;40846;44.788;20.486;2022-12-18T11:23:03;51.90;2227.20
54946;DHT22;40846;44.788;20.486;2022-12-18T11:25:31;52.00;2227.20
54946;DHT22;40846;44.788;20.486;2022-12-18T11:28:05;51.80;2227.20
54946;DHT22;40846;44.788;20.486;2022-12-18T11:30:37;51.80;2227.20
54946;DHT22;40846;44.788;20.486;2022-12-18T11:33:11;51.90;2227.20
54946;DHT22;40846;44.788;20.486;2022-12-18T11:35:48;52.00;2227.20
54946;DHT22;40846;44.788;20.486;2022-12-18T11:41:04;76.90;2227.20
54946;DHT22;40846;44.788;20.486;2022-12-18T11:43:40;77.10;2227.20
54946;DHT22;40846;44.788;20.486;2022-12-18T11:46:23;77.20;2227.20
54946;DHT22;40846;44.788;20.486;2022-12-18T11:49:01;77.40;2227.20
54946;DHT22;40846;44.788;20.486;2022-12-18T11:51:36;102.40;2227.20
54946;DHT22;40846;44.788;20.486;2022-12-18T11:54:15;102.70;2227.20
54946;DHT22;40846;44.788;20.486;2022-12-18T11:57:04;103.00;2227.20
54946;DHT22;40846;44.788;20.486;2022-12-18T12:21:03;103.10;2227.20
54946;DHT22;40846;44.788;20.486;2022-12-18T12:39:22;102.80;2227.20
54946;DHT22;40846;44.788;20.486;2022-12-18T12:41:48;102.50;2227.20
54946;DHT22;40846;44.788;20.486;2022-12-18T12:44:39;102.40;2227.20
54946;DHT22;40846;44.788;20.486;2022-12-18T12:47:28;77.50;2227.20
54946;DHT22;40846;44.788;20.486;2022-12-18T12:49:57;77.60;2227.20
54946;DHT22;40846;44.788;20.486;2022-12-18T12:52:32;77.50;2227.20
54946;DHT22;40846;44.788;20.486;2022-12-18T12:54:59;77.30;2227.20
54946;DHT22;40846;44.788;20.486;2022-12-18T12:57:36;77.00;2227.20
54946;DHT22;40846;44.788;20.486;2022-12-18T13:00:13;77.10;2227.20
54946;DHT22;40846;44.788;20.486;2022-12-18T13:02:51;52.10;2227.20
54946;DHT22;40846;44.788;20.486;2022-12-18T13:10:34;77.00;2227.20
54946;DHT22;40846;44.788;20.486;2022-12-18T13:15:46;77.10;2227.20
54946;DHT22;40846;44.788;20.486;2022-12-18T13:18:19;77.10;2227.20
54946;DHT22;40846;44.788;20.486;2022-12-18T13:23:33;77.00;2227.20
54946;DHT22;40846;44.788;20.486;2022-12-18T13:34:17;76.90;2227.20
54946;DHT22;40846;44.788;20.486;2022-12-18T13:36:43;76.90;2227.20
54946;DHT22;40846;44.788;20.486;2022-12-18T13:41:36;77.00;2227.20
54946;DHT22;40846;44.788;20.486;2022-12-18T13:46:52;76.90;2227.20
54946;DHT22;40846;44.788;20.486;2022-12-18T13:49:38;76.80;2227.20
54946;DHT22;40846;44.788;20.486;2022-12-18T13:52:25;76.80;2227.20
54946;DHT22;40846;44.788;20.486;2022-12-18T13:54:56;76.80;2227.20
54946;DHT22;40846;44.788;20.486;2022-12-18T13:57:33;76.80;2227.20
54946;DHT22;40846;44.788;20.486;2022-12-18T14:02:45;51.90;2227.20
54946;DHT22;40846;44.788;20.486;2022-12-18T14:07:51;76.90;2227.20
54946;DHT22;40846;44.788;20.486;2022-12-18T14:10:17;77.10;2227.20
54946;DHT22;40846;44.788;20.486;2022-12-18T14:12:50;77.30;2227.20
54946;DHT22;40846;44.788;20.486;2022-12-18T14:18:34;77.20;2227.20
54946;DHT22;40846;44.788;20.486;2022-12-18T14:21:03;77.30;2227.20
54946;DHT22;40846;44.788;20.486;2022-12-18T14:23:38;77.30;2227.20
54946;DHT22;40846;44.788;20.486;2022-12-18T14:26:30;77.30;2227.20
54946;DHT22;40846;44.788;20.486;2022-12-18T14:29:00;77.40;2227.20
54946;DHT22;40846;44.788;20.486;2022-12-18T14:31:29;77.40;2227.20
54946;DHT22;40846;44.788;20.486;2022-12-18T14:33:55;77.30;2227.20
54946;DHT22;40846;44.788;20.486;2022-12-18T14:36:26;77.10;2227.20
54946;DHT22;40846;44.788;20.486;2022-12-18T14:38:54;77.20;2227.20
54946;DHT22;40846;44.788;20.486;2022-12-18T14:41:21;77.10;2227.20
54946;DHT22;40846;44.788;20.486;2022-12-18T14:43:50;77.10;2227.20
54946;DHT22;40846;44.788;20.486;2022-12-18T14:46:37;77.00;2227.20
54946;DHT22;40846;44.788;20.486;2022-12-18T14:49:28;77.10;2227.20
54946;DHT22;40846;44.788;20.486;2022-12-18T14:51:55;77.00;2227.20
54946;DHT22;40846;44.788;20.486;2022-12-18T14:54:23;77.00;2227.20
54946;DHT22;40846;44.788;20.486;2022-12-18T14:56:57;77.00;2227.20
54946;DHT22;40846;44.788;20.486;2022-12-18T14:59:26;77.10;2227.20
54946;DHT22;40846;44.788;20.486;2022-12-18T15:02:10;77.10;2227.20
54946;DHT22;40846;44.788;20.486;2022-12-18T15:04:40;77.00;2227.20
54946;DHT22;40846;44.788;20.486;2022-12-18T15:07:18;76.90;2227.20
54946;DHT22;40846;44.788;20.486;2022-12-18T15:12:36;77.00;2227.20
54946;DHT22;40846;44.788;20.486;2022-12-18T15:15:03;77.20;2227.20
54946;DHT22;40846;44.788;20.486;2022-12-18T15:17:29;77.30;2227.20
54946;DHT22;40846;44.788;20.486;2022-12-18T15:20:00;77.20;2227.20
54946;DHT22;40846;44.788;20.486;2022-12-18T15:22:34;77.30;2227.20
54946;DHT22;40846;44.788;20.486;2022-12-18T15:25:00;77.40;2227.20
54946;DHT22;40846;44.788;20.486;2022-12-18T15:27:32;77.50;2227.20
54946;DHT22;40846;44.788;20.486;2022-12-18T15:32:41;77.60;2227.20
54946;DHT22;40846;44.788;20.486;2022-12-18T15:37:33;77.60;2227.20
54946;DHT22;40846;44.788;20.486;2022-12-18T15:39:58;77.60;2227.20
54946;DHT22;40846;44.788;20.486;2022-12-18T15:42:24;77.70;2227.20
54946;DHT22;40846;44.788;20.486;2022-12-18T15:45:12;77.70;2227.20
54946;DHT22;40846;44.788;20.486;2022-12-18T15:47:38;102.40;2227.20
54946;DHT22;40846;44.788;20.486;2022-12-18T15:50:05;77.70;2227.20
54946;DHT22;40846;44.788;20.486;2022-12-18T15:52:43;77.70;2227.20
54946;DHT22;40846;44.788;20.486;2022-12-18T15:55:14;77.70;2227.20
54946;DHT22;40846;44.788;20.486;2022-12-18T15:57:58;77.60;2227.20
54946;DHT22;40846;44.788;20.486;2022-12-18T16:00:24;77.70;2227.20
54946;DHT22;40846;44.788;20.486;2022-12-18T16:02:49;77.70;2227.20
54946;DHT22;40846;44.788;20.486;2022-12-18T16:05:17;77.70;2227.20
54946;DHT22;40846;44.788;20.486;2022-12-18T16:07:43;102.40;2227.20
54946;DHT22;40846;44.788;20.486;2022-12-18T16:10:10;102.40;2227.20
54946;DHT22;40846;44.788;20.486;2022-12-18T16:12:36;102.40;2227.20
54946;DHT22;40846;44.788;20.486;2022-12-18T16:15:02;102.40;2227.20
54946;DHT22;40846;44.788;20.486;2022-12-18T16:17:28;77.60;2227.20
54946;DHT22;40846;44.788;20.486;2022-12-18T16:19:54;77.70;2227.20
54946;DHT22;40846;44.788;20.486;2022-12-18T16:22:23;102.40;2227.20
54946;DHT22;40846;44.788;20.486;2022-12-18T16:24:51;102.40;2227.20
54946;DHT22;40846;44.788;20.486;2022-12-18T16:27:17;102.40;2227.20
54946;DHT22;40846;44.788;20.486;2022-12-18T16:29:44;77.70;2227.20
54946;DHT22;40846;44.788;20.486;2022-12-18T16:32:15;77.60;2227.20
54946;DHT22;40846;44.788;20.486;2022-12-18T16:34:42;77.30;2227.20
54946;DHT22;40846;44.788;20.486;2022-12-18T16:37:10;77.30;2227.20
54946;DHT22;40846;44.788;20.486;2022-12-18T16:39:37;77.40;2227.20
54946;DHT22;40846;44.788;20.486;2022-12-18T16:42:05;77.40;2227.20
54946;DHT22;40846;44.788;20.486;2022-12-18T16:44:32;77.40;2227.20
54946;DHT22;40846;44.788;20.486;2022-12-18T16:46:58;77.50;2227.20
54946;DHT22;40846;44.788;20.486;2022-12-18T16:49:27;77.40;2227.20
54946;DHT22;40846;44.788;20.486;2022-12-18T16:51:53;77.40;2227.20
54946;DHT22;40846;44.788;20.486;2022-12-18T16:54:20;77.20;2227.20
54946;DHT22;40846;44.788;20.486;2022-12-18T16:56:46;77.40;2227.20
54946;DHT22;40846;44.788;20.486;2022-12-18T16:59:14;77.50;2227.20
54946;DHT22;40846;44.788;20.486;2022-12-18T17:01:42;77.50;2227.20
54946;DHT22;40846;44.788;20.486;2022-12-18T17:04:08;77.50;2227.20
54946;DHT22;40846;44.788;20.486;2022-12-18T17:06:37;77.40;2227.20
54946;DHT22;40846;44.788;20.486;2022-12-18T17:09:08;77.40;2227.20
54946;DHT22;40846;44.788;20.486;2022-12-18T17:11:35;77.30;2227.20
54946;DHT22;40846;44.788;20.486;2022-12-18T17:14:14;77.30;2227.20
54946;DHT22;40846;44.788;20.486;2022-12-18T17:16:41;77.40;2227.20
54946;DHT22;40846;44.788;20.486;2022-12-18T17:19:06;77.40;2227.20
54946;DHT22;40846;44.788;20.486;2022-12-18T17:21:32;77.40;2227.20
54946;DHT22;40846;44.788;20.486;2022-12-18T17:24:01;77.50;2227.20
54946;DHT22;40846;44.788;20.486;2022-12-18T17:26:28;77.60;2227.20
54946;DHT22;40846;44.788;20.486;2022-12-18T17:28:56;77.60;2227.20
54946;DHT22;40846;44.788;20.486;2022-12-18T17:31:24;77.70;2227.20
54946;DHT22;40846;44.788;20.486;2022-12-18T17:33:51;77.60;2227.20
54946;DHT22;40846;44.788;20.486;2022-12-18T17:36:18;77.70;2227.20
54946;DHT22;40846;44.788;20.486;2022-12-18T17:38:52;77.50;2227.20
54946;DHT22;40846;44.788;20.486;2022-12-18T17:41:19;77.60;2227.20
54946;DHT22;40846;44.788;20.486;2022-12-18T17:43:53;77.40;2227.20
54946;DHT22;40846;44.788;20.486;2022-12-18T17:46:19;77.50;2227.20
54946;DHT22;40846;44.788;20.486;2022-12-18T17:48:45;77.40;2227.20
54946;DHT22;40846;44.788;20.486;2022-12-18T17:51:11;77.40;2227.20
54946;DHT22;40846;44.788;20.486;2022-12-18T17:53:38;77.50;2227.20
54946;DHT22;40846;44.788;20.486;2022-12-18T17:56:04;77.60;2227.20
54946;DHT22;40846;44.788;20.486;2022-12-18T17:58:32;77.70;2227.20
54946;DHT22;40846;44.788;20.486;2022-12-18T18:00:58;77.70;2227.20
54946;DHT22;40846;44.788;20.486;2022-12-18T18:03:24;77.70;2227.20
54946;DHT22;40846;44.788;20.486;2022-12-18T18:06:00;77.70;2227.20
54946;DHT22;40846;44.788;20.486;2022-12-18T18:08:27;77.50;2227.20
54946;DHT22;40846;44.788;20.486;2022-12-18T18:10:53;77.60;2227.20
54946;DHT22;40846;44.788;20.486;2022-12-18T18:13:22;77.70;2227.20
54946;DHT22;40846;44.788;20.486;2022-12-18T18:16:08;77.70;2227.20
54946;DHT22;40846;44.788;20.486;2022-12-18T18:18:34;77.70;2227.20
54946;DHT22;40846;44.788;20.486;2022-12-18T18:21:07;77.70;2227.20
54946;DHT22;40846;44.788;20.486;2022-12-18T18:23:33;77.60;2227.20
54946;DHT22;40846;44.788;20.486;2022-12-18T18:26:07;77.70;2227.20
54946;DHT22;40846;44.788;20.486;2022-12-18T18:28:33;77.60;2227.20
54946;DHT22;40846;44.788;20.486;2022-12-18T18:31:06;77.60;2227.20
54946;DHT22;40846;44.788;20.486;2022-12-18T18:33:32;77.70;2227.20
54946;DHT22;40846;44.788;20.486;2022-12-18T18:35:59;77.70;2227.20
54946;DHT22;40846;44.788;20.486;2022-12-18T18:38:24;102.40;2227.20
54946;DHT22;40846;44.788;20.486;2022-12-18T18:41:01;102.40;2227.20
54946;DHT22;40846;44.788;20.486;2022-12-18T18:43:27;102.40;2227.20
54946;DHT22;40846;44.788;20.486;2022-12-18T18:45:57;77.70;2227.20
54946;DHT22;40846;44.788;20.486;2022-12-18T18:48:24;77.60;2227.20
54946;DHT22;40846;44.788;20.486;2022-12-18T18:50:57;77.50;2227.20
54946;DHT22;40846;44.788;20.486;2022-12-18T18:53:23;77.50;2227.20
54946;DHT22;40846;44.788;20.486;2022-12-18T18:55:49;77.50;2227.20
54946;DHT22;40846;44.788;20.486;2022-12-18T18:58:15;77.60;2227.20
54946;DHT22;40846;44.788;20.486;2022-12-18T19:00:40;77.50;2227.20
54946;DHT22;40846;44.788;20.486;2022-12-18T19:03:06;77.50;2227.20
54946;DHT22;40846;44.788;20.486;2022-12-18T19:05:32;77.50;2227.20
54946;DHT22;40846;44.788;20.486;2022-12-18T19:07:58;77.50;2227.20
54946;DHT22;40846;44.788;20.486;2022-12-18T19:10:24;77.60;2227.20
54946;DHT22;40846;44.788;20.486;2022-12-18T19:12:50;77.40;2227.20
54946;DHT22;40846;44.788;20.486;2022-12-18T19:15:34;77.50;2227.20
54946;DHT22;40846;44.788;20.486;2022-12-18T19:18:00;77.50;2227.20
54946;DHT22;40846;44.788;20.486;2022-12-18T19:20:26;77.50;2227.20
54946;DHT22;40846;44.788;20.486;2022-12-18T19:22:54;77.50;2227.20
54946;DHT22;40846;44.788;20.486;2022-12-18T19:25:21;77.40;2227.20
54946;DHT22;40846;44.788;20.486;2022-12-18T19:27:46;77.40;2227.20
54946;DHT22;40846;44.788;20.486;2022-12-18T19:30:12;77.40;2227.20
54946;DHT22;40846;44.788;20.486;2022-12-18T19:32:38;77.40;2227.20
54946;DHT22;40846;44.788;20.486;2022-12-18T19:35:04;77.40;2227.20
54946;DHT22;40846;44.788;20.486;2022-12-18T19:37:29;77.30;2227.20
54946;DHT22;40846;44.788;20.486;2022-12-18T19:39:55;77.40;2227.20
54946;DHT22;40846;44.788;20.486;2022-12-18T19:42:21;77.40;2227.20
54946;DHT22;40846;44.788;20.486;2022-12-18T19:44:47;77.40;2227.20
54946;DHT22;40846;44.788;20.486;2022-12-18T19:47:13;77.40;2227.20
54946;DHT22;40846;44.788;20.486;2022-12-18T19:49:38;77.40;2227.20
54946;DHT22;40846;44.788;20.486;2022-12-18T19:52:04;77.40;2227.20
54946;DHT22;40846;44.788;20.486;2022-12-18T19:54:30;77.40;2227.20
54946;DHT22;40846;44.788;20.486;2022-12-18T19:56:55;77.30;2227.20
54946;DHT22;40846;44.788;20.486;2022-12-18T19:59:21;77.30;2227.20
54946;DHT22;40846;44.788;20.486;2022-12-18T20:01:47;77.30;2227.20
54946;DHT22;40846;44.788;20.486;2022-12-18T20:04:14;77.30;2227.20
54946;DHT22;40846;44.788;20.486;2022-12-18T20:06:51;77.30;2227.20
54946;DHT22;40846;44.788;20.486;2022-12-18T20:09:17;77.20;2227.20
54946;DHT22;40846;44.788;20.486;2022-12-18T20:11:43;77.30;2227.20
54946;DHT22;40846;44.788;20.486;2022-12-18T20:14:10;77.30;2227.20
54946;DHT22;40846;44.788;20.486;2022-12-18T20:16:36;77.30;2227.20
54946;DHT22;40846;44.788;20.486;2022-12-18T20:19:02;77.30;2227.20